Terminal Aerodrome Forecast
Issued by NWS

Home | Current Version | Previous Version | Text Only | Print | Product List | Glossary On
Versions: 1 2 3 4 5 6 7 8 9 10 11 12 13 14 15 16 17 18
000
FTUS46 KLOX 051142
TAFWJF
TAF
KWJF 051142Z 0512/0612 25015G20KT P6SM BKN150
     FM051700 23017G25KT P6SM SCT060 BKN100
     FM052000 22023G31KT P6SM VCTS SCT025CB BKN050
     FM060200 23014G22KT P6SM SCT050 SCT080=

USA.gov is the U.S. government's official web portal to all federal, state and local government web resources and services.